KILE/ILE METAR and TAF weather

Enter ICAO airport designator
Station Type Date Time Source
KILE METAR 2018/12/11 22:56 UTC NOAA

KILE 112256Z AUTO 19009KT 10SM CLR 14/02 A3020 RMK AO2 SLP250 T01390022


Station Type Date Time Source
KILE Decoded METAR 2018/12/11 22:56 UTC NOAA

Killeen, Skylark Field Airport, TX, United States (KILE) 31-05N 097-41W
Dec 11, 2018 - 05:56 PM EST / 2018.12.11 2256 UTC
Wind: from the S (190 degrees) at 10 MPH (9 KT):0
Visibility: 10 mile(s):0
Sky conditions: clear
Temperature: 57.0 F (13.9 C)
Dew Point: 36.0 F (2.2 C)
Relative Humidity: 45%
Pressure (altimeter): 30.2 in. Hg (1022 hPa)
ob: KILE 112256Z AUTO 19009KT 10SM CLR 14/02 A3020 RMK AO2 SLP250 T01390022
cycle: 23

Station Type Date Time Source
KILE TAF UTC NOAA

Error!


Example: see airport list